sensor_id;sensor_type;location;lat;lon;timestamp;P1;durP1;ratioP1;P2;durP2;ratioP2
35644;SDS011;21764;52.042;6.830;2022-08-25T00:01:16;3.72;;;2.30;;
35644;SDS011;21764;52.042;6.830;2022-08-25T00:06:25;9.75;;;2.78;;
35644;SDS011;21764;52.042;6.830;2022-08-25T00:11:28;4.85;;;2.55;;
35644;SDS011;21764;52.042;6.830;2022-08-25T00:16:30;3.83;;;2.35;;
35644;SDS011;21764;52.042;6.830;2022-08-25T00:21:31;8.23;;;2.55;;
35644;SDS011;21764;52.042;6.830;2022-08-25T00:26:32;8.98;;;2.80;;
35644;SDS011;21764;52.042;6.830;2022-08-25T00:31:33;8.57;;;2.58;;
35644;SDS011;21764;52.042;6.830;2022-08-25T00:36:34;8.88;;;3.10;;
35644;SDS011;21764;52.042;6.830;2022-08-25T00:41:36;6.72;;;2.95;;
35644;SDS011;21764;52.042;6.830;2022-08-25T00:46:41;8.05;;;3.13;;
35644;SDS011;21764;52.042;6.830;2022-08-25T00:51:52;7.90;;;2.97;;
35644;SDS011;21764;52.042;6.830;2022-08-25T00:56:57;6.63;;;2.88;;
35644;SDS011;21764;52.042;6.830;2022-08-25T01:01:59;6.68;;;2.72;;
35644;SDS011;21764;52.042;6.830;2022-08-25T01:07:00;5.60;;;3.10;;
35644;SDS011;21764;52.042;6.830;2022-08-25T01:12:01;5.47;;;2.80;;
35644;SDS011;21764;52.042;6.830;2022-08-25T01:17:03;6.47;;;3.00;;
35644;SDS011;21764;52.042;6.830;2022-08-25T01:22:04;11.65;;;2.95;;
35644;SDS011;21764;52.042;6.830;2022-08-25T01:27:05;6.72;;;2.72;;
35644;SDS011;21764;52.042;6.830;2022-08-25T01:32:08;7.50;;;2.92;;
35644;SDS011;21764;52.042;6.830;2022-08-25T01:37:12;6.28;;;3.13;;
35644;SDS011;21764;52.042;6.830;2022-08-25T01:42:22;9.35;;;3.53;;
35644;SDS011;21764;52.042;6.830;2022-08-25T01:47:31;6.65;;;3.10;;
35644;SDS011;21764;52.042;6.830;2022-08-25T01:52:35;6.57;;;3.05;;
35644;SDS011;21764;52.042;6.830;2022-08-25T01:57:44;7.80;;;3.28;;
35644;SDS011;21764;52.042;6.830;2022-08-25T02:02:45;6.78;;;3.20;;
35644;SDS011;21764;52.042;6.830;2022-08-25T02:07:46;9.23;;;3.47;;
35644;SDS011;21764;52.042;6.830;2022-08-25T02:12:47;6.10;;;3.30;;
35644;SDS011;21764;52.042;6.830;2022-08-25T02:17:49;5.82;;;3.20;;
35644;SDS011;21764;52.042;6.830;2022-08-25T02:22:50;8.57;;;3.40;;
35644;SDS011;21764;52.042;6.830;2022-08-25T02:27:52;7.32;;;3.72;;
35644;SDS011;21764;52.042;6.830;2022-08-25T02:32:53;8.93;;;3.50;;
35644;SDS011;21764;52.042;6.830;2022-08-25T02:37:54;5.05;;;3.08;;
35644;SDS011;21764;52.042;6.830;2022-08-25T02:42:55;11.40;;;3.30;;
35644;SDS011;21764;52.042;6.830;2022-08-25T02:47:56;8.20;;;3.42;;
35644;SDS011;21764;52.042;6.830;2022-08-25T02:52:57;7.90;;;3.30;;
35644;SDS011;21764;52.042;6.830;2022-08-25T02:57:57;9.43;;;3.40;;
35644;SDS011;21764;52.042;6.830;2022-08-25T03:02:58;10.40;;;3.80;;
35644;SDS011;21764;52.042;6.830;2022-08-25T03:07:59;7.43;;;3.38;;
35644;SDS011;21764;52.042;6.830;2022-08-25T03:12:59;7.30;;;3.20;;
35644;SDS011;21764;52.042;6.830;2022-08-25T03:18:00;11.93;;;3.65;;
35644;SDS011;21764;52.042;6.830;2022-08-25T03:23:02;8.07;;;3.50;;
35644;SDS011;21764;52.042;6.830;2022-08-25T03:28:05;7.57;;;3.50;;
35644;SDS011;21764;52.042;6.830;2022-08-25T03:33:07;7.22;;;3.72;;
35644;SDS011;21764;52.042;6.830;2022-08-25T03:38:07;6.32;;;3.70;;
35644;SDS011;21764;52.042;6.830;2022-08-25T03:43:08;18.17;;;4.35;;
35644;SDS011;21764;52.042;6.830;2022-08-25T03:48:09;13.57;;;4.05;;
35644;SDS011;21764;52.042;6.830;2022-08-25T03:53:10;8.75;;;4.07;;
35644;SDS011;21764;52.042;6.830;2022-08-25T03:58:11;13.00;;;4.60;;
35644;SDS011;21764;52.042;6.830;2022-08-25T04:03:12;10.07;;;4.07;;
35644;SDS011;21764;52.042;6.830;2022-08-25T04:08:12;7.53;;;3.60;;
35644;SDS011;21764;52.042;6.830;2022-08-25T04:13:13;11.55;;;4.13;;
35644;SDS011;21764;52.042;6.830;2022-08-25T04:18:14;8.02;;;4.60;;
35644;SDS011;21764;52.042;6.830;2022-08-25T04:23:15;14.45;;;4.47;;
35644;SDS011;21764;52.042;6.830;2022-08-25T04:28:15;6.90;;;4.18;;
35644;SDS011;21764;52.042;6.830;2022-08-25T04:33:16;7.85;;;3.80;;
35644;SDS011;21764;52.042;6.830;2022-08-25T04:38:17;8.68;;;4.35;;
35644;SDS011;21764;52.042;6.830;2022-08-25T04:43:17;5.53;;;4.53;;
35644;SDS011;21764;52.042;6.830;2022-08-25T04:48:18;10.20;;;4.90;;
35644;SDS011;21764;52.042;6.830;2022-08-25T04:53:20;7.65;;;4.45;;
35644;SDS011;21764;52.042;6.830;2022-08-25T04:58:21;5.88;;;4.22;;
35644;SDS011;21764;52.042;6.830;2022-08-25T05:03:21;10.57;;;4.85;;
35644;SDS011;21764;52.042;6.830;2022-08-25T05:08:22;13.43;;;5.65;;
35644;SDS011;21764;52.042;6.830;2022-08-25T05:13:23;10.20;;;3.97;;
35644;SDS011;21764;52.042;6.830;2022-08-25T05:18:25;9.65;;;4.45;;
35644;SDS011;21764;52.042;6.830;2022-08-25T05:23:28;8.87;;;4.30;;
35644;SDS011;21764;52.042;6.830;2022-08-25T05:28:29;7.50;;;4.10;;
35644;SDS011;21764;52.042;6.830;2022-08-25T05:33:30;11.50;;;4.20;;
35644;SDS011;21764;52.042;6.830;2022-08-25T05:38:31;5.70;;;3.95;;
35644;SDS011;21764;52.042;6.830;2022-08-25T05:43:32;7.82;;;4.00;;
35644;SDS011;21764;52.042;6.830;2022-08-25T05:48:33;7.03;;;3.63;;
35644;SDS011;21764;52.042;6.830;2022-08-25T05:53:35;10.45;;;3.90;;
35644;SDS011;21764;52.042;6.830;2022-08-25T05:58:36;8.27;;;3.75;;
35644;SDS011;21764;52.042;6.830;2022-08-25T06:03:37;11.07;;;3.90;;
35644;SDS011;21764;52.042;6.830;2022-08-25T06:08:38;10.10;;;3.67;;
35644;SDS011;21764;52.042;6.830;2022-08-25T06:13:39;10.40;;;3.60;;
35644;SDS011;21764;52.042;6.830;2022-08-25T06:18:40;14.52;;;3.60;;
35644;SDS011;21764;52.042;6.830;2022-08-25T06:23:41;10.02;;;3.50;;
35644;SDS011;21764;52.042;6.830;2022-08-25T06:28:41;11.90;;;3.45;;
35644;SDS011;21764;52.042;6.830;2022-08-25T06:33:42;14.90;;;3.38;;
35644;SDS011;21764;52.042;6.830;2022-08-25T06:38:44;9.38;;;3.25;;
35644;SDS011;21764;52.042;6.830;2022-08-25T06:43:45;6.93;;;3.20;;
35644;SDS011;21764;52.042;6.830;2022-08-25T06:48:46;7.60;;;2.85;;
35644;SDS011;21764;52.042;6.830;2022-08-25T06:53:47;6.68;;;2.72;;
35644;SDS011;21764;52.042;6.830;2022-08-25T06:58:49;5.65;;;2.90;;
35644;SDS011;21764;52.042;6.830;2022-08-25T07:03:49;5.07;;;3.08;;
35644;SDS011;21764;52.042;6.830;2022-08-25T07:08:53;7.55;;;3.00;;
35644;SDS011;21764;52.042;6.830;2022-08-25T07:13:56;4.03;;;2.72;;
35644;SDS011;21764;52.042;6.830;2022-08-25T07:18:57;4.82;;;2.80;;
35644;SDS011;21764;52.042;6.830;2022-08-25T07:23:59;5.10;;;3.37;;
35644;SDS011;21764;52.042;6.830;2022-08-25T07:29:03;10.70;;;2.83;;
35644;SDS011;21764;52.042;6.830;2022-08-25T07:34:06;6.80;;;2.83;;
35644;SDS011;21764;52.042;6.830;2022-08-25T07:39:27;12.00;;;2.90;;
35644;SDS011;21764;52.042;6.830;2022-08-25T07:44:28;8.15;;;3.55;;
35644;SDS011;21764;52.042;6.830;2022-08-25T07:49:28;10.75;;;3.22;;
35644;SDS011;21764;52.042;6.830;2022-08-25T07:54:29;7.60;;;3.33;;
35644;SDS011;21764;52.042;6.830;2022-08-25T07:59:30;5.70;;;3.53;;
35644;SDS011;21764;52.042;6.830;2022-08-25T08:04:31;5.07;;;2.88;;
35644;SDS011;21764;52.042;6.830;2022-08-25T08:09:35;8.10;;;3.10;;
35644;SDS011;21764;52.042;6.830;2022-08-25T08:14:36;11.48;;;3.50;;
35644;SDS011;21764;52.042;6.830;2022-08-25T08:19:37;6.15;;;3.03;;
35644;SDS011;21764;52.042;6.830;2022-08-25T08:24:37;5.05;;;3.05;;
35644;SDS011;21764;52.042;6.830;2022-08-25T08:29:38;10.40;;;3.42;;
35644;SDS011;21764;52.042;6.830;2022-08-25T08:34:40;4.85;;;3.20;;
35644;SDS011;21764;52.042;6.830;2022-08-25T08:39:41;6.90;;;3.55;;
35644;SDS011;21764;52.042;6.830;2022-08-25T08:55:07;8.45;;;3.70;;
35644;SDS011;21764;52.042;6.830;2022-08-25T09:00:15;4.82;;;3.17;;
35644;SDS011;21764;52.042;6.830;2022-08-25T09:10:19;6.17;;;3.57;;
35644;SDS011;21764;52.042;6.830;2022-08-25T09:20:51;6.38;;;3.55;;
35644;SDS011;21764;52.042;6.830;2022-08-25T09:36:23;6.82;;;3.65;;
35644;SDS011;21764;52.042;6.830;2022-08-25T09:41:35;7.90;;;3.85;;
35644;SDS011;21764;52.042;6.830;2022-08-25T09:46:52;7.47;;;4.20;;
35644;SDS011;21764;52.042;6.830;2022-08-25T10:02:45;8.55;;;3.50;;
35644;SDS011;21764;52.042;6.830;2022-08-25T10:08:11;8.48;;;3.65;;
35644;SDS011;21764;52.042;6.830;2022-08-25T10:13:21;6.97;;;3.67;;
35644;SDS011;21764;52.042;6.830;2022-08-25T10:18:37;7.63;;;4.15;;
35644;SDS011;21764;52.042;6.830;2022-08-25T10:23:44;9.90;;;3.53;;
35644;SDS011;21764;52.042;6.830;2022-08-25T10:39:37;5.80;;;3.35;;
35644;SDS011;21764;52.042;6.830;2022-08-25T11:06:37;4.53;;;3.13;;
35644;SDS011;21764;52.042;6.830;2022-08-25T11:16:52;4.78;;;3.20;;
35644;SDS011;21764;52.042;6.830;2022-08-25T11:27:12;7.45;;;3.50;;
35644;SDS011;21764;52.042;6.830;2022-08-25T11:32:19;7.95;;;3.83;;
35644;SDS011;21764;52.042;6.830;2022-08-25T11:37:24;12.85;;;4.10;;
35644;SDS011;21764;52.042;6.830;2022-08-25T11:42:33;9.50;;;3.67;;
35644;SDS011;21764;52.042;6.830;2022-08-25T11:52:56;8.95;;;3.63;;
35644;SDS011;21764;52.042;6.830;2022-08-25T11:58:34;6.80;;;4.57;;
35644;SDS011;21764;52.042;6.830;2022-08-25T12:08:52;8.20;;;3.85;;
35644;SDS011;21764;52.042;6.830;2022-08-25T12:24:44;8.10;;;4.07;;
35644;SDS011;21764;52.042;6.830;2022-08-25T12:35:29;6.80;;;3.60;;
35644;SDS011;21764;52.042;6.830;2022-08-25T12:40:38;3.85;;;3.35;;
35644;SDS011;21764;52.042;6.830;2022-08-25T12:51:20;8.13;;;2.40;;
35644;SDS011;21764;52.042;6.830;2022-08-25T13:07:09;6.63;;;3.30;;
35644;SDS011;21764;52.042;6.830;2022-08-25T13:12:16;9.35;;;3.35;;
35644;SDS011;21764;52.042;6.830;2022-08-25T13:17:29;5.28;;;3.15;;
35644;SDS011;21764;52.042;6.830;2022-08-25T13:22:32;8.73;;;2.50;;
35644;SDS011;21764;52.042;6.830;2022-08-25T13:27:33;7.57;;;2.65;;
35644;SDS011;21764;52.042;6.830;2022-08-25T13:32:35;6.70;;;2.90;;
35644;SDS011;21764;52.042;6.830;2022-08-25T13:37:38;4.13;;;2.65;;
35644;SDS011;21764;52.042;6.830;2022-08-25T13:42:39;8.73;;;2.75;;
35644;SDS011;21764;52.042;6.830;2022-08-25T13:47:41;4.95;;;2.90;;
35644;SDS011;21764;52.042;6.830;2022-08-25T13:52:47;8.13;;;2.97;;
35644;SDS011;21764;52.042;6.830;2022-08-25T13:58:00;8.45;;;2.38;;
35644;SDS011;21764;52.042;6.830;2022-08-25T14:03:02;8.82;;;2.50;;
35644;SDS011;21764;52.042;6.830;2022-08-25T14:08:04;2.35;;;1.90;;
35644;SDS011;21764;52.042;6.830;2022-08-25T14:13:08;3.55;;;2.22;;
35644;SDS011;21764;52.042;6.830;2022-08-25T14:18:18;5.15;;;2.20;;
35644;SDS011;21764;52.042;6.830;2022-08-25T14:23:25;4.28;;;2.33;;
35644;SDS011;21764;52.042;6.830;2022-08-25T14:28:27;7.47;;;2.90;;
35644;SDS011;21764;52.042;6.830;2022-08-25T14:33:30;4.75;;;2.60;;
35644;SDS011;21764;52.042;6.830;2022-08-25T14:38:34;4.88;;;2.60;;
35644;SDS011;21764;52.042;6.830;2022-08-25T14:43:37;7.50;;;2.28;;
35644;SDS011;21764;52.042;6.830;2022-08-25T14:48:39;6.57;;;2.17;;
35644;SDS011;21764;52.042;6.830;2022-08-25T14:53:42;5.78;;;2.20;;
35644;SDS011;21764;52.042;6.830;2022-08-25T14:58:43;3.80;;;2.00;;
35644;SDS011;21764;52.042;6.830;2022-08-25T15:03:44;3.20;;;2.45;;
35644;SDS011;21764;52.042;6.830;2022-08-25T15:08:47;5.72;;;2.40;;
35644;SDS011;21764;52.042;6.830;2022-08-25T15:14:06;4.28;;;2.10;;
35644;SDS011;21764;52.042;6.830;2022-08-25T15:19:09;8.95;;;2.53;;
35644;SDS011;21764;52.042;6.830;2022-08-25T15:24:13;8.88;;;2.58;;
35644;SDS011;21764;52.042;6.830;2022-08-25T15:29:15;5.85;;;2.25;;
35644;SDS011;21764;52.042;6.830;2022-08-25T15:34:19;6.20;;;2.60;;
35644;SDS011;21764;52.042;6.830;2022-08-25T15:39:20;9.82;;;2.90;;
35644;SDS011;21764;52.042;6.830;2022-08-25T15:44:21;8.88;;;2.60;;
35644;SDS011;21764;52.042;6.830;2022-08-25T15:49:21;6.95;;;2.75;;
35644;SDS011;21764;52.042;6.830;2022-08-25T15:54:22;4.90;;;2.75;;
35644;SDS011;21764;52.042;6.830;2022-08-25T15:59:24;6.10;;;2.58;;
35644;SDS011;21764;52.042;6.830;2022-08-25T16:04:26;9.75;;;3.30;;
35644;SDS011;21764;52.042;6.830;2022-08-25T16:09:28;5.88;;;3.15;;
35644;SDS011;21764;52.042;6.830;2022-08-25T16:14:30;5.15;;;3.00;;
35644;SDS011;21764;52.042;6.830;2022-08-25T16:19:31;4.25;;;2.88;;
35644;SDS011;21764;52.042;6.830;2022-08-25T16:24:32;7.30;;;2.92;;
35644;SDS011;21764;52.042;6.830;2022-08-25T16:29:33;5.72;;;3.15;;
35644;SDS011;21764;52.042;6.830;2022-08-25T16:34:35;8.88;;;3.38;;
35644;SDS011;21764;52.042;6.830;2022-08-25T16:39:37;10.50;;;3.83;;
35644;SDS011;21764;52.042;6.830;2022-08-25T16:44:42;7.80;;;3.42;;
35644;SDS011;21764;52.042;6.830;2022-08-25T16:49:43;14.38;;;3.97;;
35644;SDS011;21764;52.042;6.830;2022-08-25T16:54:44;10.75;;;3.70;;
35644;SDS011;21764;52.042;6.830;2022-08-25T17:00:05;8.98;;;4.22;;
35644;SDS011;21764;52.042;6.830;2022-08-25T17:05:10;16.58;;;6.60;;
35644;SDS011;21764;52.042;6.830;2022-08-25T17:10:13;9.38;;;4.50;;
35644;SDS011;21764;52.042;6.830;2022-08-25T17:15:14;10.43;;;3.70;;
35644;SDS011;21764;52.042;6.830;2022-08-25T17:20:21;10.68;;;4.55;;
35644;SDS011;21764;52.042;6.830;2022-08-25T17:25:21;11.50;;;4.45;;
35644;SDS011;21764;52.042;6.830;2022-08-25T17:30:22;11.27;;;4.68;;
35644;SDS011;21764;52.042;6.830;2022-08-25T17:35:23;6.68;;;4.00;;
35644;SDS011;21764;52.042;6.830;2022-08-25T17:40:23;6.03;;;4.68;;
35644;SDS011;21764;52.042;6.830;2022-08-25T17:45:24;15.20;;;4.70;;
35644;SDS011;21764;52.042;6.830;2022-08-25T17:50:25;12.23;;;4.10;;
35644;SDS011;21764;52.042;6.830;2022-08-25T17:55:26;12.27;;;4.80;;
35644;SDS011;21764;52.042;6.830;2022-08-25T18:00:27;17.23;;;4.97;;
35644;SDS011;21764;52.042;6.830;2022-08-25T18:05:29;12.10;;;4.60;;
35644;SDS011;21764;52.042;6.830;2022-08-25T18:10:31;11.98;;;4.88;;
35644;SDS011;21764;52.042;6.830;2022-08-25T18:15:32;11.27;;;5.10;;
35644;SDS011;21764;52.042;6.830;2022-08-25T18:20:33;18.42;;;5.32;;
35644;SDS011;21764;52.042;6.830;2022-08-25T18:25:34;15.65;;;4.85;;
35644;SDS011;21764;52.042;6.830;2022-08-25T18:30:35;21.85;;;5.85;;
35644;SDS011;21764;52.042;6.830;2022-08-25T18:35:35;16.73;;;5.70;;
35644;SDS011;21764;52.042;6.830;2022-08-25T18:40:37;13.57;;;5.38;;
35644;SDS011;21764;52.042;6.830;2022-08-25T18:45:42;12.95;;;5.13;;
35644;SDS011;21764;52.042;6.830;2022-08-25T18:50:46;9.73;;;5.70;;
35644;SDS011;21764;52.042;6.830;2022-08-25T18:55:49;11.30;;;5.13;;
35644;SDS011;21764;52.042;6.830;2022-08-25T19:00:53;9.88;;;5.60;;
35644;SDS011;21764;52.042;6.830;2022-08-25T19:05:54;10.55;;;5.45;;
35644;SDS011;21764;52.042;6.830;2022-08-25T19:10:55;11.10;;;4.70;;
35644;SDS011;21764;52.042;6.830;2022-08-25T19:15:56;10.50;;;5.68;;
35644;SDS011;21764;52.042;6.830;2022-08-25T19:20:57;11.95;;;5.80;;
35644;SDS011;21764;52.042;6.830;2022-08-25T19:25:57;8.38;;;5.40;;
35644;SDS011;21764;52.042;6.830;2022-08-25T19:30:59;16.83;;;5.88;;
35644;SDS011;21764;52.042;6.830;2022-08-25T19:36:02;9.50;;;6.00;;
35644;SDS011;21764;52.042;6.830;2022-08-25T19:41:05;10.57;;;5.63;;
35644;SDS011;21764;52.042;6.830;2022-08-25T19:46:06;8.23;;;5.93;;
35644;SDS011;21764;52.042;6.830;2022-08-25T19:51:07;12.10;;;5.78;;
35644;SDS011;21764;52.042;6.830;2022-08-25T19:56:08;10.65;;;6.07;;
35644;SDS011;21764;52.042;6.830;2022-08-25T20:01:09;13.48;;;5.70;;
35644;SDS011;21764;52.042;6.830;2022-08-25T20:06:10;9.20;;;5.85;;
35644;SDS011;21764;52.042;6.830;2022-08-25T20:11:11;14.73;;;6.38;;
35644;SDS011;21764;52.042;6.830;2022-08-25T20:16:11;12.93;;;6.07;;
35644;SDS011;21764;52.042;6.830;2022-08-25T20:21:12;10.70;;;5.75;;
35644;SDS011;21764;52.042;6.830;2022-08-25T20:26:13;11.27;;;6.20;;
35644;SDS011;21764;52.042;6.830;2022-08-25T20:31:14;13.23;;;6.22;;
35644;SDS011;21764;52.042;6.830;2022-08-25T20:36:15;15.40;;;6.55;;
35644;SDS011;21764;52.042;6.830;2022-08-25T20:41:16;12.52;;;6.55;;
35644;SDS011;21764;52.042;6.830;2022-08-25T20:46:16;11.05;;;6.35;;
35644;SDS011;21764;52.042;6.830;2022-08-25T20:51:18;12.60;;;6.55;;
35644;SDS011;21764;52.042;6.830;2022-08-25T20:56:21;10.15;;;7.00;;
35644;SDS011;21764;52.042;6.830;2022-08-25T21:01:24;12.15;;;7.05;;
35644;SDS011;21764;52.042;6.830;2022-08-25T21:06:36;13.27;;;7.18;;
35644;SDS011;21764;52.042;6.830;2022-08-25T21:11:38;15.27;;;6.50;;
35644;SDS011;21764;52.042;6.830;2022-08-25T21:16:39;15.63;;;6.75;;
35644;SDS011;21764;52.042;6.830;2022-08-25T21:21:45;12.27;;;6.10;;
35644;SDS011;21764;52.042;6.830;2022-08-25T21:26:47;10.07;;;6.75;;
35644;SDS011;21764;52.042;6.830;2022-08-25T21:31:52;12.65;;;7.03;;
35644;SDS011;21764;52.042;6.830;2022-08-25T21:36:53;14.55;;;7.05;;
35644;SDS011;21764;52.042;6.830;2022-08-25T21:41:56;13.10;;;7.45;;
35644;SDS011;21764;52.042;6.830;2022-08-25T21:46:57;11.05;;;7.95;;
35644;SDS011;21764;52.042;6.830;2022-08-25T21:51:58;15.00;;;7.53;;
35644;SDS011;21764;52.042;6.830;2022-08-25T21:57:00;18.92;;;7.97;;
35644;SDS011;21764;52.042;6.830;2022-08-25T22:02:04;19.65;;;7.68;;
35644;SDS011;21764;52.042;6.830;2022-08-25T22:07:09;11.57;;;7.70;;
35644;SDS011;21764;52.042;6.830;2022-08-25T22:12:10;12.63;;;7.53;;
35644;SDS011;21764;52.042;6.830;2022-08-25T22:17:10;12.75;;;7.43;;
35644;SDS011;21764;52.042;6.830;2022-08-25T22:22:11;11.32;;;7.43;;
35644;SDS011;21764;52.042;6.830;2022-08-25T22:27:14;12.20;;;8.13;;
35644;SDS011;21764;52.042;6.830;2022-08-25T22:32:15;12.95;;;7.47;;
35644;SDS011;21764;52.042;6.830;2022-08-25T22:37:16;12.10;;;7.95;;
35644;SDS011;21764;52.042;6.830;2022-08-25T22:42:17;11.77;;;7.88;;
35644;SDS011;21764;52.042;6.830;2022-08-25T22:47:18;11.93;;;7.22;;
35644;SDS011;21764;52.042;6.830;2022-08-25T22:52:18;13.88;;;8.10;;
35644;SDS011;21764;52.042;6.830;2022-08-25T22:57:19;15.50;;;7.72;;
35644;SDS011;21764;52.042;6.830;2022-08-25T23:02:20;16.50;;;8.70;;
35644;SDS011;21764;52.042;6.830;2022-08-25T23:07:20;11.32;;;7.97;;
35644;SDS011;21764;52.042;6.830;2022-08-25T23:12:22;12.73;;;8.88;;
35644;SDS011;21764;52.042;6.830;2022-08-25T23:17:24;19.38;;;10.10;;
35644;SDS011;21764;52.042;6.830;2022-08-25T23:22:28;16.33;;;10.50;;
35644;SDS011;21764;52.042;6.830;2022-08-25T23:27:29;18.95;;;12.95;;
35644;SDS011;21764;52.042;6.830;2022-08-25T23:32:29;19.35;;;14.77;;
35644;SDS011;21764;52.042;6.830;2022-08-25T23:37:30;30.50;;;18.65;;
35644;SDS011;21764;52.042;6.830;2022-08-25T23:42:32;29.70;;;20.13;;
35644;SDS011;21764;52.042;6.830;2022-08-25T23:47:32;32.13;;;22.63;;
35644;SDS011;21764;52.042;6.830;2022-08-25T23:52:33;38.78;;;25.77;;
35644;SDS011;21764;52.042;6.830;2022-08-25T23:57:34;44.42;;;29.58;;
